Time;durP1;ratioP1;P1;durP2;ratioP2;P2;SDS_P1;SDS_P2;PMS_P1;PMS_P2;Temp;Humidity;BMP_temperature;BMP_pressure;BME280_temperature;BME280_humidity;BME280_pressure;Samples;Min_cycle;Max_cycle;Signal;HPM_P1;HPM_P2
2021/07/05 00:01:16;;;;;;;1.48;1.38;;;16.20;99.90;;;;;;5047123;28;20301;-72
2021/07/05 00:03:44;;;;;;;1.40;1.20;;;16.30;99.90;;;;;;5046977;28;20724;-72
2021/07/05 00:06:11;;;;;;;1.23;1.20;;;16.40;99.90;;;;;;5046218;28;20260;-72
2021/07/05 00:08:38;;;;;;;2.88;1.13;;;16.50;99.90;;;;;;5046231;28;20260;-72
2021/07/05 00:11:05;;;;;;;1.73;1.45;;;16.50;99.90;;;;;;5047387;28;20294;-72
2021/07/05 00:13:34;;;;;;;1.20;1.20;;;16.40;99.90;;;;;;5046862;28;20316;-71
2021/07/05 00:16:01;;;;;;;1.42;1.33;;;16.40;99.90;;;;;;5045870;28;20210;-72
2021/07/05 00:18:28;;;;;;;2.05;1.38;;;16.30;99.90;;;;;;5047175;28;20209;-72
2021/07/05 00:20:55;;;;;;;2.03;1.42;;;16.30;99.90;;;;;;5046725;28;20246;-72
2021/07/05 00:23:22;;;;;;;1.50;1.40;;;16.10;99.90;;;;;;5047228;28;20212;-72
2021/07/05 00:25:49;;;;;;;2.20;1.38;;;16.20;99.90;;;;;;5046477;28;20633;-72
2021/07/05 00:28:16;;;;;;;1.45;1.35;;;16.20;99.90;;;;;;5046620;28;20300;-72
2021/07/05 00:30:44;;;;;;;1.70;1.60;;;16.20;99.90;;;;;;5046726;28;20219;-72
2021/07/05 00:33:12;;;;;;;1.38;1.30;;;16.20;99.90;;;;;;5046413;28;20769;-73
2021/07/05 00:35:39;;;;;;;1.40;1.40;;;16.20;99.90;;;;;;5046295;28;20278;-72
2021/07/05 00:38:06;;;;;;;1.83;1.42;;;16.10;99.90;;;;;;5047076;28;20212;-72
2021/07/05 00:40:33;;;;;;;1.65;1.55;;;16.10;99.90;;;;;;5047016;28;20888;-72
2021/07/05 00:43:00;;;;;;;1.63;1.52;;;16.20;99.90;;;;;;5046800;28;20210;-72
2021/07/05 00:45:29;;;;;;;1.50;1.40;;;16.10;99.90;;;;;;5046815;28;20197;-72
2021/07/05 00:47:58;;;;;;;2.97;1.50;;;16.00;99.90;;;;;;5046392;28;20205;-72
2021/07/05 00:50:27;;;;;;;1.20;1.20;;;16.10;99.90;;;;;;5046601;28;20609;-72
2021/07/05 00:52:56;;;;;;;1.10;1.10;;;16.10;99.90;;;;;;5046558;28;20233;-72
2021/07/05 00:55:23;;;;;;;3.55;1.70;;;16.00;99.90;;;;;;5046374;28;20616;-72
2021/07/05 00:57:51;;;;;;;1.45;1.35;;;16.00;99.90;;;;;;5052367;28;21094;-72
2021/07/05 01:00:19;;;;;;;3.58;1.55;;;15.90;99.90;;;;;;5064941;28;20208;-72
2021/07/05 01:02:48;;;;;;;1.70;1.60;;;16.00;99.90;;;;;;5046004;28;20204;-72
2021/07/05 01:05:17;;;;;;;2.05;1.50;;;16.00;99.90;;;;;;5044958;28;20245;-72
2021/07/05 01:07:46;;;;;;;1.70;1.60;;;16.00;99.90;;;;;;5030439;28;20596;-72
2021/07/05 01:10:14;;;;;;;1.33;1.33;;;16.00;99.90;;;;;;5050081;28;20202;-72
2021/07/05 01:12:41;;;;;;;1.65;1.10;;;16.10;99.90;;;;;;5049516;28;20225;-72
2021/07/05 01:15:10;;;;;;;1.98;1.33;;;16.00;99.90;;;;;;5051792;28;20206;-72
2021/07/05 01:17:37;;;;;;;1.48;1.38;;;16.00;99.90;;;;;;5050034;28;20205;-72
2021/07/05 01:20:06;;;;;;;1.90;1.80;;;15.90;99.90;;;;;;5050106;28;20210;-71
2021/07/05 01:22:34;;;;;;;1.70;1.58;;;15.80;99.90;;;;;;5049595;28;20580;-72
2021/07/05 01:25:01;;;;;;;1.60;1.50;;;15.80;99.90;;;;;;5049635;28;20197;-72
2021/07/05 01:27:28;;;;;;;1.50;1.40;;;15.90;99.90;;;;;;5049236;28;20224;-72
2021/07/05 01:29:55;;;;;;;1.60;1.50;;;15.90;99.90;;;;;;5039989;28;20300;-72
2021/07/05 01:32:22;;;;;;;1.70;1.60;;;16.00;99.90;;;;;;5048336;28;20279;-72
2021/07/05 01:34:49;;;;;;;1.90;1.80;;;16.00;99.90;;;;;;5049398;28;20232;-72
2021/07/05 01:37:16;;;;;;;1.73;1.63;;;16.10;99.90;;;;;;5049307;28;20813;-71
2021/07/05 01:39:44;;;;;;;1.20;1.20;;;16.20;99.90;;;;;;5049661;28;20208;-71
2021/07/05 01:42:11;;;;;;;1.50;1.40;;;16.20;99.90;;;;;;5049098;28;20404;-72
2021/07/05 01:44:38;;;;;;;2.35;1.92;;;16.10;99.90;;;;;;5049464;28;20666;-72
2021/07/05 01:47:05;;;;;;;1.52;1.48;;;16.20;99.90;;;;;;5049690;28;20232;-71
2021/07/05 01:49:33;;;;;;;1.77;1.48;;;16.00;99.90;;;;;;5049692;28;20229;-72
2021/07/05 01:52:00;;;;;;;1.65;1.55;;;15.90;99.90;;;;;;5049474;28;20233;-71
2021/07/05 01:54:27;;;;;;;1.77;1.67;;;15.90;99.90;;;;;;5049551;28;20244;-72
2021/07/05 01:56:55;;;;;;;1.40;1.40;;;16.00;99.90;;;;;;5048667;28;21077;-72
2021/07/05 01:59:22;;;;;;;1.60;1.50;;;16.00;99.90;;;;;;5049227;28;20284;-72
2021/07/05 02:01:49;;;;;;;1.50;1.40;;;16.00;99.90;;;;;;5049036;28;20201;-71
2021/07/05 02:04:16;;;;;;;1.35;1.25;;;16.10;99.90;;;;;;5049057;28;20574;-72
2021/07/05 02:06:43;;;;;;;2.10;2.00;;;16.10;99.90;;;;;;5063124;22;20324;-72
2021/07/05 02:09:10;;;;;;;1.58;1.48;;;16.10;99.90;;;;;;5069303;28;20794;-72
2021/07/05 02:11:37;;;;;;;1.27;1.23;;;16.10;99.90;;;;;;5068876;22;20756;-71
2021/07/05 02:14:06;;;;;;;1.45;1.45;;;16.10;99.90;;;;;;5048981;28;20261;-72
2021/07/05 02:16:34;;;;;;;2.35;2.00;;;16.10;99.90;;;;;;5028807;28;20214;-71
2021/07/05 02:19:00;;;;;;;2.67;1.50;;;16.10;99.90;;;;;;5028843;28;20293;-72
2021/07/05 02:21:27;;;;;;;1.83;1.73;;;15.90;99.90;;;;;;5028842;28;20690;-71
2021/07/05 02:23:54;;;;;;;2.20;2.00;;;15.80;99.90;;;;;;5043415;28;20299;-71
2021/07/05 02:26:21;;;;;;;1.95;1.85;;;15.60;99.90;;;;;;5047746;28;20655;-72
2021/07/05 02:28:48;;;;;;;5.78;1.90;;;15.70;99.90;;;;;;5048822;28;20202;-71
2021/07/05 02:31:17;;;;;;;1.55;1.45;;;15.60;99.90;;;;;;5048324;28;20206;-71
2021/07/05 02:33:43;;;;;;;1.95;1.52;;;15.60;99.90;;;;;;5048470;28;20230;-71
2021/07/05 02:36:10;;;;;;;2.25;1.40;;;15.80;99.90;;;;;;5048254;28;20211;-71
2021/07/05 02:38:38;;;;;;;2.03;1.80;;;15.90;99.90;;;;;;5048427;28;20312;-71
2021/07/05 02:41:06;;;;;;;3.15;2.28;;;15.90;99.90;;;;;;5047318;28;20296;-71
2021/07/05 02:43:33;;;;;;;3.00;2.05;;;15.90;99.90;;;;;;5048336;28;20702;-72
2021/07/05 02:46:00;;;;;;;1.52;1.42;;;15.80;99.90;;;;;;5048213;28;20217;-72
2021/07/05 02:48:32;;;;;;;1.92;1.80;;;15.90;99.90;;;;;;5048257;28;20233;-71
2021/07/05 02:51:01;;;;;;;2.50;2.30;;;15.80;99.90;;;;;;5048169;28;20752;-71
2021/07/05 02:53:28;;;;;;;3.65;1.80;;;15.90;99.90;;;;;;5047761;28;20229;-72
2021/07/05 02:55:56;;;;;;;2.95;1.50;;;15.80;99.90;;;;;;5047618;28;20317;-71
2021/07/05 02:58:23;;;;;;;2.65;2.03;;;15.70;99.90;;;;;;5047603;28;20213;-72
2021/07/05 03:00:54;;;;;;;2.38;1.95;;;15.70;99.90;;;;;;5048004;28;20318;-72
2021/07/05 03:03:21;;;;;;;1.73;1.63;;;15.70;99.90;;;;;;5048083;28;20212;-72
2021/07/05 03:05:50;;;;;;;3.35;2.10;;;15.70;99.90;;;;;;5047446;28;20201;-72
2021/07/05 03:08:17;;;;;;;2.05;1.63;;;15.70;99.90;;;;;;5047512;28;20582;-71
2021/07/05 03:10:44;;;;;;;2.15;1.60;;;15.70;99.90;;;;;;5047497;28;20299;-72
2021/07/05 03:13:17;;;;;;;1.92;1.83;;;15.70;99.90;;;;;;5047430;28;20225;-72
2021/07/05 03:15:45;;;;;;;3.80;1.75;;;15.80;99.90;;;;;;5047637;28;20198;-72
2021/07/05 03:18:12;;;;;;;4.28;1.70;;;15.90;99.90;;;;;;5047688;28;20240;-72
2021/07/05 03:20:41;;;;;;;4.32;1.60;;;15.80;99.90;;;;;;5047790;28;20233;-71
2021/07/05 03:23:12;;;;;;;2.10;2.00;;;15.90;99.90;;;;;;5047356;28;20296;-72
2021/07/05 03:25:40;;;;;;;1.50;1.40;;;15.80;99.90;;;;;;5047340;28;20719;-71
2021/07/05 03:28:10;;;;;;;2.25;2.15;;;15.80;99.90;;;;;;5047774;28;20260;-72
2021/07/05 03:30:38;;;;;;;1.73;1.60;;;15.90;99.90;;;;;;5046655;28;20907;-71
2021/07/05 03:33:06;;;;;;;2.40;1.85;;;15.90;99.90;;;;;;5047184;28;20194;-71
2021/07/05 03:35:34;;;;;;;2.13;2.03;;;15.90;99.90;;;;;;5047268;28;20329;-72
2021/07/05 03:38:01;;;;;;;2.03;1.92;;;16.10;99.90;;;;;;5047384;28;20289;-71
2021/07/05 03:40:31;;;;;;;1.63;1.55;;;16.10;99.90;;;;;;5047567;28;20220;-71
2021/07/05 03:42:59;;;;;;;2.00;1.65;;;16.10;99.90;;;;;;5047314;28;20216;-72
2021/07/05 03:45:29;;;;;;;1.77;1.67;;;16.10;99.90;;;;;;5047319;28;20221;-72
2021/07/05 03:47:57;;;;;;;3.53;1.98;;;16.00;99.90;;;;;;5046437;28;20675;-71
2021/07/05 03:50:24;;;;;;;2.45;2.25;;;16.00;99.90;;;;;;5047401;28;20247;-71
2021/07/05 03:52:51;;;;;;;2.65;2.45;;;16.00;99.90;;;;;;5047325;28;20205;-71
2021/07/05 03:55:21;;;;;;;3.15;1.80;;;16.10;99.90;;;;;;5046826;28;20316;-72
2021/07/05 03:57:50;;;;;;;1.70;1.60;;;16.00;99.90;;;;;;5047392;28;20206;-72
2021/07/05 04:00:19;;;;;;;1.70;1.60;;;16.00;99.90;;;;;;5028997;28;20241;-72
2021/07/05 04:02:46;;;;;;;2.17;1.75;;;16.00;99.90;;;;;;5047138;28;20200;-71
2021/07/05 04:05:14;;;;;;;2.03;1.92;;;16.10;99.90;;;;;;5046426;28;20202;-72
2021/07/05 04:07:42;;;;;;;2.10;1.98;;;16.00;99.90;;;;;;5047186;28;20206;-72
2021/07/05 04:10:10;;;;;;;1.98;1.88;;;15.90;99.90;;;;;;5047345;28;20206;-72
2021/07/05 04:12:38;;;;;;;2.17;1.90;;;16.00;99.90;;;;;;5047222;28;20780;-72
2021/07/05 04:15:08;;;;;;;2.83;2.20;;;15.90;99.90;;;;;;5047076;28;20248;-72
2021/07/05 04:17:35;;;;;;;2.10;2.00;;;15.80;99.90;;;;;;5046919;28;20202;-72
2021/07/05 04:20:03;;;;;;;2.22;2.03;;;15.90;99.90;;;;;;5047377;28;20952;-72
2021/07/05 04:22:30;;;;;;;3.15;1.55;;;15.80;99.90;;;;;;5046969;28;20212;-71
2021/07/05 04:24:57;;;;;;;1.60;1.50;;;15.80;99.90;;;;;;5047182;28;20827;-72
2021/07/05 04:27:24;;;;;;;1.80;1.70;;;15.80;99.90;;;;;;5047502;28;20197;-72
2021/07/05 04:29:51;;;;;;;2.20;1.80;;;15.90;99.90;;;;;;5042875;28;20229;-71
2021/07/05 04:32:19;;;;;;;2.70;2.50;;;15.90;99.90;;;;;;5046252;28;20301;-72
2021/07/05 04:34:46;;;;;;;2.20;2.00;;;16.00;99.90;;;;;;5046969;28;20312;-72
2021/07/05 04:37:12;;;;;;;3.05;2.38;;;16.10;99.90;;;;;;5046142;28;20303;-72
2021/07/05 04:39:39;;;;;;;3.65;2.67;;;16.00;99.90;;;;;;5046316;28;20220;-72
2021/07/05 04:42:06;;;;;;;2.20;2.10;;;16.00;99.90;;;;;;5048272;28;20205;-72
2021/07/05 04:44:33;;;;;;;2.70;2.50;;;16.00;99.90;;;;;;5050839;28;20249;-74
2021/07/05 04:47:02;;;;;;;2.20;2.00;;;15.90;99.90;;;;;;5051204;28;20237;-72
2021/07/05 04:49:30;;;;;;;3.63;2.17;;;15.90;99.90;;;;;;5050964;28;20198;-72
2021/07/05 04:51:57;;;;;;;3.35;2.03;;;16.10;99.90;;;;;;5050667;28;20206;-72
2021/07/05 04:54:24;;;;;;;3.40;1.92;;;16.30;99.90;;;;;;5050791;28;20336;-72
2021/07/05 04:56:51;;;;;;;2.10;2.00;;;16.60;99.90;;;;;;5049918;28;20304;-72
2021/07/05 04:59:18;;;;;;;2.88;1.83;;;16.80;99.90;;;;;;5050285;28;20300;-72
2021/07/05 05:01:46;;;;;;;2.20;1.80;;;17.10;99.90;;;;;;5049321;28;20205;-72
2021/07/05 05:04:13;;;;;;;2.83;2.70;;;17.30;99.90;;;;;;5049266;28;20210;-72
2021/07/05 05:06:42;;;;;;;2.05;1.95;;;17.60;99.90;;;;;;5049455;28;20781;-72
2021/07/05 05:09:09;;;;;;;2.83;2.60;;;17.90;99.90;;;;;;5050143;28;20205;-72
2021/07/05 05:11:36;;;;;;;3.10;2.72;;;18.10;99.90;;;;;;5049770;28;20288;-72
2021/07/05 05:14:03;;;;;;;1.67;1.58;;;18.20;99.90;;;;;;5049685;28;20326;-72
2021/07/05 05:16:30;;;;;;;1.98;1.70;;;18.70;99.90;;;;;;5049565;28;20205;-73
2021/07/05 05:19:00;;;;;;;2.35;2.15;;;18.90;99.90;;;;;;5043371;28;20205;-72
2021/07/05 05:21:27;;;;;;;2.30;2.20;;;19.00;99.90;;;;;;5040039;28;20208;-72
2021/07/05 05:23:55;;;;;;;2.63;1.90;;;18.80;99.90;;;;;;5039919;28;21326;-72
2021/07/05 05:26:23;;;;;;;3.33;1.63;;;18.80;99.90;;;;;;5038531;28;20203;-73
2021/07/05 05:28:51;;;;;;;2.20;2.10;;;18.90;99.90;;;;;;5043598;28;20739;-72
2021/07/05 05:31:18;;;;;;;2.13;1.93;;;19.10;99.90;;;;;;5049011;28;21144;-73
2021/07/05 05:33:45;;;;;;;1.70;1.60;;;19.00;99.90;;;;;;5048979;28;20722;-72
2021/07/05 05:36:12;;;;;;;1.90;1.77;;;19.40;99.90;;;;;;5049439;28;20612;-73
2021/07/05 05:38:40;;;;;;;3.37;1.90;;;19.90;99.90;;;;;;5049791;28;20624;-73
2021/07/05 05:41:08;;;;;;;1.83;1.70;;;20.30;99.90;;;;;;5049285;28;20627;-73
2021/07/05 05:43:35;;;;;;;1.90;1.80;;;21.10;99.90;;;;;;5044535;28;20620;-73
2021/07/05 05:46:02;;;;;;;1.87;1.70;;;21.40;99.90;;;;;;5044883;28;20628;-72
2021/07/05 05:48:29;;;;;;;1.70;1.60;;;21.50;99.90;;;;;;5043446;28;20744;-72
2021/07/05 05:50:56;;;;;;;3.00;2.00;;;21.30;99.90;;;;;;5038206;28;20673;-72
2021/07/05 05:53:24;;;;;;;1.50;1.40;;;21.00;99.90;;;;;;5047128;28;20646;-72
2021/07/05 05:55:51;;;;;;;1.80;1.70;;;20.60;99.90;;;;;;5046941;28;20703;-72
2021/07/05 05:58:19;;;;;;;2.17;1.97;;;20.30;99.90;;;;;;5047399;28;20717;-72
2021/07/05 06:00:46;;;;;;;2.17;1.73;;;20.20;99.90;;;;;;5048161;28;20623;-73
2021/07/05 06:03:13;;;;;;;2.10;2.00;;;19.80;99.90;;;;;;5047052;28;20647;-72
2021/07/05 06:05:39;;;;;;;2.10;1.90;;;19.40;99.90;;;;;;5054799;28;20636;-72
2021/07/05 06:08:06;;;;;;;6.07;2.27;;;19.20;99.90;;;;;;5045205;28;20631;-72
2021/07/05 06:10:33;;;;;;;2.63;1.90;;;19.00;99.90;;;;;;5047464;28;20632;-72
2021/07/05 06:13:01;;;;;;;2.17;2.07;;;18.90;99.90;;;;;;5041612;28;20724;-72
2021/07/05 06:15:29;;;;;;;2.33;1.87;;;18.80;99.90;;;;;;5047343;28;21041;-73
2021/07/05 06:17:56;;;;;;;2.77;1.80;;;18.70;99.90;;;;;;5046942;28;20639;-72
2021/07/05 06:20:24;;;;;;;4.40;2.30;;;18.90;99.90;;;;;;5047461;28;20634;-73
2021/07/05 06:22:53;;;;;;;2.60;2.10;;;18.70;99.90;;;;;;5046935;28;20753;-72
2021/07/05 06:25:21;;;;;;;2.83;1.70;;;18.60;99.90;;;;;;5046799;28;20647;-72
2021/07/05 06:27:48;;;;;;;4.80;1.83;;;18.50;99.90;;;;;;5047574;28;21592;-72
2021/07/05 06:30:16;;;;;;;1.90;1.80;;;18.60;99.90;;;;;;5047457;28;20636;-72
2021/07/05 06:32:48;;;;;;;1.90;1.80;;;18.50;99.90;;;;;;5060647;23;20729;-75
2021/07/05 06:35:17;;;;;;;2.07;1.97;;;18.50;99.90;;;;;;5060024;28;21279;-72
2021/07/05 06:37:44;;;;;;;2.08;1.90;;;18.50;99.90;;;;;;5071757;22;21266;-70
2021/07/05 06:40:11;;;;;;;2.20;2.10;;;18.70;99.90;;;;;;5065815;28;20297;-70
2021/07/05 06:42:38;;;;;;;3.20;1.97;;;18.50;99.90;;;;;;5059102;28;20634;-70
2021/07/05 06:45:06;;;;;;;1.80;1.70;;;18.50;99.90;;;;;;5056602;28;20620;-70
2021/07/05 06:47:34;;;;;;;1.80;1.70;;;18.50;99.90;;;;;;5061757;28;20244;-70
2021/07/05 06:50:02;;;;;;;2.10;1.88;;;18.50;99.90;;;;;;5056284;28;20624;-70
2021/07/05 06:52:32;;;;;;;2.07;1.97;;;18.60;99.90;;;;;;5052509;28;20298;-70
2021/07/05 06:54:59;;;;;;;2.50;1.80;;;18.70;99.90;;;;;;5060646;28;20722;-70
2021/07/05 06:57:33;;;;;;;2.60;1.80;;;18.70;99.90;;;;;;5054451;28;20627;-70
2021/07/05 07:00:01;;;;;;;2.53;2.33;;;18.70;99.90;;;;;;5055592;28;20631;-70
2021/07/05 07:02:28;;;;;;;1.87;1.77;;;18.90;99.90;;;;;;5058551;28;20723;-70
2021/07/05 07:04:55;;;;;;;2.17;1.93;;;19.00;99.90;;;;;;5054301;28;20712;-70
2021/07/05 07:07:23;;;;;;;1.97;1.87;;;19.10;99.90;;;;;;5063178;28;20636;-70
2021/07/05 07:09:50;;;;;;;2.77;2.00;;;19.10;99.90;;;;;;5054943;28;20728;-70
2021/07/05 07:12:17;;;;;;;2.10;1.93;;;19.10;99.90;;;;;;5064755;28;21060;-70
2021/07/05 07:14:44;;;;;;;1.87;1.77;;;19.30;99.90;;;;;;5064898;28;21572;-70
2021/07/05 07:17:19;;;;;;;2.63;1.93;;;19.50;99.90;;;;;;5063566;22;20702;-71
2021/07/05 07:19:46;;;;;;;1.90;1.80;;;19.50;99.90;;;;;;5052256;28;21448;-72
2021/07/05 07:22:12;;;;;;;2.30;2.00;;;19.60;99.90;;;;;;5066777;22;20774;-70
2021/07/05 07:24:40;;;;;;;1.87;1.77;;;19.50;99.90;;;;;;5058007;28;20627;-70
2021/07/05 07:27:07;;;;;;;1.60;1.50;;;19.50;99.90;;;;;;5058043;28;20726;-70
2021/07/05 07:29:34;;;;;;;2.10;2.00;;;19.60;99.90;;;;;;5064889;28;20763;-70
2021/07/05 07:32:02;;;;;;;1.67;1.63;;;19.50;99.90;;;;;;5063488;28;20633;-70
2021/07/05 07:34:28;;;;;;;1.97;1.83;;;19.60;99.90;;;;;;5065941;28;20720;-70
2021/07/05 07:36:59;;;;;;;2.67;2.03;;;19.60;99.90;;;;;;5069479;22;21305;-72
2021/07/05 07:39:28;;;;;;;2.50;2.07;;;19.80;99.90;;;;;;5057777;28;20729;-72
2021/07/05 07:41:57;;;;;;;1.80;1.70;;;20.10;99.90;;;;;;5072272;22;20770;-70
2021/07/05 07:44:23;;;;;;;1.90;1.80;;;20.10;99.90;;;;;;5064484;28;20615;-70
2021/07/05 07:46:50;;;;;;;3.80;1.90;;;20.20;99.90;;;;;;5065511;28;21028;-71
2021/07/05 07:49:17;;;;;;;1.70;1.60;;;20.40;99.90;;;;;;5065590;28;20670;-70
2021/07/05 07:51:44;;;;;;;2.17;1.87;;;20.50;99.90;;;;;;5066040;28;20669;-71
2021/07/05 07:54:11;;;;;;;2.43;1.90;;;20.60;99.90;;;;;;5065240;28;20735;-71
2021/07/05 07:56:38;;;;;;;1.90;1.63;;;20.80;99.90;;;;;;5064962;28;20667;-70
2021/07/05 07:59:07;;;;;;;3.70;1.60;;;20.60;99.90;;;;;;5065889;28;21014;-70
2021/07/05 08:01:34;;;;;;;1.93;1.70;;;20.60;99.90;;;;;;5065677;28;21200;-70
2021/07/05 08:04:01;;;;;;;1.50;1.40;;;20.60;99.90;;;;;;5065383;28;20685;-70
2021/07/05 08:06:27;;;;;;;1.67;1.53;;;20.70;99.90;;;;;;5062992;28;20719;-70
2021/07/05 08:08:55;;;;;;;1.47;1.37;;;20.80;99.90;;;;;;5061015;28;21140;-70
2021/07/05 08:11:22;;;;;;;1.93;1.83;;;21.00;99.90;;;;;;5060727;28;20631;-70
2021/07/05 08:13:50;;;;;;;1.70;1.60;;;21.20;99.90;;;;;;5065446;28;21462;-70
2021/07/05 08:16:18;;;;;;;1.53;1.43;;;21.20;99.90;;;;;;5063037;28;20678;-70
2021/07/05 08:18:45;;;;;;;1.40;1.40;;;21.00;99.90;;;;;;5060409;28;20719;-70
2021/07/05 08:21:12;;;;;;;3.20;2.83;;;20.80;99.90;;;;;;5067096;28;20623;-71
2021/07/05 08:23:40;;;;;;;2.13;2.03;;;20.80;99.90;;;;;;5065243;28;20640;-70
2021/07/05 08:26:07;;;;;;;1.73;1.60;;;20.70;99.90;;;;;;5064994;28;20655;-70
2021/07/05 08:28:34;;;;;;;1.50;1.40;;;20.60;99.90;;;;;;5067138;28;20727;-70
2021/07/05 08:31:01;;;;;;;2.40;1.87;;;20.50;99.90;;;;;;5069089;28;20633;-70
2021/07/05 08:33:31;;;;;;;1.70;1.60;;;20.40;99.90;;;;;;5061342;28;20630;-70
2021/07/05 08:35:58;;;;;;;1.70;1.60;;;20.40;99.90;;;;;;5064298;28;20683;-70
2021/07/05 08:38:25;;;;;;;2.57;2.30;;;20.30;99.90;;;;;;5061093;28;20739;-71
2021/07/05 08:40:51;;;;;;;1.40;1.30;;;20.40;99.90;;;;;;5068867;28;20733;-70
2021/07/05 08:43:25;;;;;;;2.60;1.53;;;20.50;99.90;;;;;;5066381;28;20646;-71
2021/07/05 08:45:55;;;;;;;1.30;1.30;;;20.60;99.90;;;;;;5061050;28;20634;-71
2021/07/05 08:48:22;;;;;;;1.57;1.57;;;20.60;99.90;;;;;;5058208;28;20662;-71
2021/07/05 08:50:51;;;;;;;2.10;1.90;;;20.40;99.90;;;;;;5062585;28;20646;-71
2021/07/05 08:53:18;;;;;;;2.23;1.73;;;20.40;99.90;;;;;;5068370;28;20642;-71
2021/07/05 08:55:45;;;;;;;2.57;1.60;;;20.40;99.90;;;;;;5064060;28;20690;-71
2021/07/05 08:58:12;;;;;;;3.33;1.80;;;20.50;99.90;;;;;;5068674;28;21233;-71
2021/07/05 09:00:39;;;;;;;2.10;1.90;;;20.60;99.90;;;;;;5066611;28;21193;-71
2021/07/05 09:03:11;;;;;;;2.07;1.90;;;20.50;99.90;;;;;;5064701;28;20963;-71
2021/07/05 09:05:38;;;;;;;3.03;1.63;;;20.50;99.90;;;;;;5056206;28;21087;-71
2021/07/05 09:08:10;;;;;;;2.00;1.90;;;20.60;99.90;;;;;;5065935;28;20733;-71
2021/07/05 09:10:46;;;;;;;1.83;1.73;;;20.70;99.90;;;;;;5065721;28;21688;-71
2021/07/05 09:13:15;;;;;;;2.07;1.97;;;20.60;99.90;;;;;;5059202;28;20698;-71
2021/07/05 09:15:45;;;;;;;2.60;1.77;;;20.70;99.90;;;;;;5066707;28;21152;-71
2021/07/05 09:18:31;;;;;;;1.80;1.70;;;20.70;99.90;;;;;;5065029;28;21187;-71
2021/07/05 09:21:11;;;;;;;2.00;1.90;;;20.80;99.90;;;;;;5061866;28;21003;-71
2021/07/05 09:23:45;;;;;;;1.70;1.60;;;20.80;99.90;;;;;;5059866;28;20749;-71
2021/07/05 09:26:22;;;;;;;1.67;1.40;;;21.10;99.90;;;;;;5065250;28;20622;-71
2021/07/05 09:28:51;;;;;;;1.83;1.73;;;21.10;99.90;;;;;;5063564;28;20729;-71
2021/07/05 09:31:29;;;;;;;1.80;1.70;;;21.10;99.90;;;;;;5065020;28;20730;-71
2021/07/05 09:33:56;;;;;;;1.73;1.57;;;21.00;99.90;;;;;;5067159;28;20991;-71
2021/07/05 09:36:24;;;;;;;2.23;2.13;;;20.70;99.90;;;;;;5059013;28;20693;-71
2021/07/05 09:38:53;;;;;;;2.00;1.90;;;20.30;99.90;;;;;;5061830;28;20726;-71
2021/07/05 09:41:23;;;;;;;2.23;2.13;;;20.20;99.90;;;;;;5068049;28;20631;-71
2021/07/05 09:43:55;;;;;;;1.87;1.77;;;20.00;99.90;;;;;;5068581;28;20643;-70
2021/07/05 09:46:36;;;;;;;3.00;1.90;;;19.60;99.90;;;;;;5067946;28;20631;-70
2021/07/05 09:49:14;;;;;;;3.50;1.90;;;19.50;99.90;;;;;;5068025;28;20635;-69
2021/07/05 09:51:42;;;;;;;1.60;1.50;;;19.60;99.90;;;;;;5068372;28;20753;-69
2021/07/05 09:54:11;;;;;;;2.50;1.30;;;19.60;99.90;;;;;;5074566;22;20677;-72
2021/07/05 09:56:38;;;;;;;1.00;1.00;;;19.70;99.90;;;;;;5066553;28;21309;-72
2021/07/05 09:59:17;;;;;;;1.10;0.90;;;19.60;99.90;;;;;;5047740;22;20824;-71
2021/07/05 10:01:46;;;;;;;1.17;1.17;;;19.80;99.90;;;;;;5039404;28;20623;-71
2021/07/05 10:04:23;;;;;;;1.10;1.00;;;20.10;99.90;;;;;;5069354;22;21467;-72
2021/07/05 10:06:50;;;;;;;1.20;1.20;;;20.20;99.90;;;;;;5064121;28;20625;-72
2021/07/05 10:09:31;;;;;;;2.93;1.20;;;20.50;99.90;;;;;;5068971;22;20694;-69
2021/07/05 10:12:15;;;;;;;1.23;1.13;;;20.50;99.90;;;;;;5055786;28;21209;-70
2021/07/05 10:14:42;;;;;;;1.10;1.10;;;20.50;99.90;;;;;;5061183;28;20627;-70
2021/07/05 10:17:15;;;;;;;1.10;1.00;;;20.40;99.90;;;;;;5064072;28;20806;-69
2021/07/05 10:19:42;;;;;;;2.80;1.63;;;20.10;99.90;;;;;;5064008;28;20635;-69
2021/07/05 10:22:11;;;;;;;1.33;1.33;;;20.00;99.90;;;;;;5064378;28;20742;-71
2021/07/05 10:24:41;;;;;;;1.77;1.60;;;19.70;99.90;;;;;;5058934;28;20645;-70
2021/07/05 10:27:10;;;;;;;2.20;1.80;;;19.60;99.90;;;;;;5064935;28;21227;-69
2021/07/05 10:29:38;;;;;;;1.63;1.30;;;19.50;99.90;;;;;;5067254;28;20631;-69
2021/07/05 10:32:06;;;;;;;1.67;1.57;;;19.50;99.90;;;;;;5063579;28;20638;-69
2021/07/05 10:34:33;;;;;;;1.77;1.67;;;19.30;99.90;;;;;;5060339;28;20627;-69
2021/07/05 10:37:04;;;;;;;1.57;1.47;;;19.30;99.90;;;;;;5055392;28;20703;-70
2021/07/05 10:39:32;;;;;;;1.40;1.40;;;19.50;99.90;;;;;;5061411;28;21037;-70
2021/07/05 10:42:00;;;;;;;1.47;1.37;;;19.40;99.90;;;;;;5059910;28;20642;-70
2021/07/05 10:44:41;;;;;;;1.80;1.70;;;19.40;99.90;;;;;;5062142;28;20635;-71
2021/07/05 10:47:08;;;;;;;1.90;1.77;;;19.40;99.90;;;;;;5053369;28;20683;-70
2021/07/05 10:49:50;;;;;;;1.50;1.40;;;19.30;99.90;;;;;;5055740;28;20719;-70
2021/07/05 10:52:19;;;;;;;2.17;1.80;;;19.20;99.90;;;;;;5060563;28;20635;-70
2021/07/05 10:54:49;;;;;;;1.77;1.67;;;19.20;99.90;;;;;;5064291;28;20635;-70
2021/07/05 10:57:20;;;;;;;1.77;1.70;;;19.20;99.90;;;;;;5070945;22;20732;-72
2021/07/05 10:59:49;;;;;;;1.23;1.23;;;19.50;99.90;;;;;;5065713;28;21090;-72
2021/07/05 11:02:50;;;;;;;1.30;1.30;;;19.50;99.90;;;;;;5072034;22;20726;-70
2021/07/05 11:05:48;;;;;;;3.10;1.60;;;19.60;99.90;;;;;;5051639;28;20636;-70
2021/07/05 11:08:35;;;;;;;2.30;1.17;;;19.90;99.90;;;;;;4964155;28;20636;-70
2021/07/05 11:11:23;;;;;;;1.27;1.27;;;20.00;99.90;;;;;;5056154;28;20651;-70
2021/07/05 11:14:12;;;;;;;1.83;1.50;;;20.10;99.90;;;;;;5065164;28;21390;-70
2021/07/05 11:17:10;;;;;;;1.80;1.70;;;20.40;99.90;;;;;;5058737;28;20733;-70
2021/07/05 11:19:40;;;;;;;1.50;1.40;;;20.40;99.90;;;;;;5061968;28;20680;-70
2021/07/05 11:22:17;;;;;;;1.90;1.80;;;20.40;99.90;;;;;;5051433;28;20706;-70
2021/07/05 11:24:47;;;;;;;1.17;1.17;;;20.50;99.90;;;;;;5053288;28;20667;-70
2021/07/05 11:27:50;;;;;;;1.20;1.20;;;20.60;99.90;;;;;;5064751;28;20786;-70
2021/07/05 11:30:30;;;;;;;1.33;1.23;;;21.00;99.90;;;;;;5059644;28;21014;-70
2021/07/05 11:32:59;;;;;;;1.27;1.13;;;21.20;99.90;;;;;;5064958;28;20998;-70
2021/07/05 11:35:39;;;;;;;1.30;1.30;;;21.40;99.90;;;;;;5061825;28;20689;-70
2021/07/05 11:38:10;;;;;;;0.97;0.97;;;21.30;99.90;;;;;;5061913;28;20994;-70
2021/07/05 11:40:48;;;;;;;1.60;1.50;;;21.60;99.90;;;;;;5064874;28;20627;-70
2021/07/05 11:43:17;;;;;;;1.30;1.30;;;21.80;99.90;;;;;;5062249;28;20980;-70
2021/07/05 11:45:48;;;;;;;1.27;1.27;;;21.60;99.90;;;;;;5059414;28;20624;-70
2021/07/05 11:48:51;;;;;;;1.93;1.60;;;21.20;99.90;;;;;;5063156;28;20643;-70
2021/07/05 11:51:18;;;;;;;1.60;1.50;;;20.60;99.90;;;;;;5058864;28;20633;-70
2021/07/05 11:53:49;;;;;;;1.83;1.73;;;20.10;99.90;;;;;;5057745;28;20751;-70
2021/07/05 11:56:28;;;;;;;3.70;1.80;;;19.80;99.90;;;;;;5059753;28;21494;-70
2021/07/05 11:58:55;;;;;;;1.63;1.53;;;19.70;99.90;;;;;;5065689;28;21524;-70
2021/07/05 12:01:25;;;;;;;2.20;1.33;;;19.90;99.90;;;;;;5060021;28;20718;-70
2021/07/05 12:03:53;;;;;;;2.87;1.83;;;20.20;99.90;;;;;;5055635;28;20648;-70
2021/07/05 12:06:21;;;;;;;1.50;1.40;;;20.30;99.90;;;;;;5054713;28;20723;-70
2021/07/05 12:08:55;;;;;;;1.80;1.67;;;20.80;99.90;;;;;;5063403;28;20659;-70
2021/07/05 12:11:47;;;;;;;1.37;1.30;;;21.10;99.90;;;;;;5055875;28;20722;-70
2021/07/05 12:14:17;;;;;;;1.70;1.60;;;21.30;99.90;;;;;;5044666;28;20663;-69
2021/07/05 12:16:50;;;;;;;1.63;1.53;;;21.20;99.90;;;;;;5044486;28;20783;-69
2021/07/05 12:19:17;;;;;;;2.10;2.00;;;21.10;99.90;;;;;;5057748;28;20639;-70
2021/07/05 12:21:47;;;;;;;2.37;2.20;;;21.00;99.90;;;;;;5064643;28;20622;-70
2021/07/05 12:24:22;;;;;;;1.97;1.87;;;21.00;99.90;;;;;;5047523;28;20638;-70
2021/07/05 12:26:59;;;;;;;3.00;2.00;;;21.20;99.90;;;;;;5057284;28;20677;-70
2021/07/05 12:29:30;;;;;;;2.27;2.17;;;21.00;99.90;;;;;;5056681;28;20646;-70
2021/07/05 12:32:05;;;;;;;2.57;1.90;;;21.00;99.90;;;;;;5065656;28;20623;-71
2021/07/05 12:34:42;;;;;;;1.53;1.43;;;20.90;99.90;;;;;;5064405;28;20629;-71
2021/07/05 12:37:13;;;;;;;1.80;1.70;;;21.00;99.90;;;;;;5062809;28;20678;-71
2021/07/05 12:39:49;;;;;;;1.43;1.43;;;21.30;99.90;;;;;;5063181;28;20635;-71
2021/07/05 12:42:26;;;;;;;2.00;1.90;;;21.70;99.90;;;;;;5059113;28;20717;-71
2021/07/05 12:44:53;;;;;;;1.80;1.70;;;22.20;99.90;;;;;;5054837;28;21059;-72
2021/07/05 12:47:23;;;;;;;2.03;1.93;;;22.40;99.90;;;;;;5058741;28;20722;-71
2021/07/05 12:49:50;;;;;;;1.90;1.80;;;22.70;99.90;;;;;;5063934;28;20721;-71
2021/07/05 12:52:18;;;;;;;1.93;1.83;;;22.90;99.90;;;;;;5063738;28;20974;-71
2021/07/05 12:54:45;;;;;;;2.00;1.90;;;23.40;99.90;;;;;;5063582;28;20726;-71
2021/07/05 12:57:14;;;;;;;1.83;1.73;;;23.90;99.90;;;;;;5065622;28;21000;-71
2021/07/05 12:59:43;;;;;;;2.47;2.27;;;24.00;99.90;;;;;;5065976;28;20703;-71